sensor_id;sensor_type;location;lat;lon;timestamp;pressure;altitude;pressure_sealevel;temperature;humidity
81372;BME280;70827;52.206;5.294;2023-11-21T00:00:00;100960.28;;;7.07;91.23
81372;BME280;70827;52.206;5.294;2023-11-21T00:02:25;100949.94;;;6.98;90.96
81372;BME280;70827;52.206;5.294;2023-11-21T00:04:51;100950.78;;;6.97;90.48
81372;BME280;70827;52.206;5.294;2023-11-21T00:07:16;100965.44;;;7.12;90.34
81372;BME280;70827;52.206;5.294;2023-11-21T00:09:42;100968.84;;;6.99;90.56
81372;BME280;70827;52.206;5.294;2023-11-21T00:12:08;100976.53;;;6.86;91.04
81372;BME280;70827;52.206;5.294;2023-11-21T00:14:33;100966.13;;;6.65;91.90
81372;BME280;70827;52.206;5.294;2023-11-21T00:17:02;100980.78;;;6.72;91.78
81372;BME280;70827;52.206;5.294;2023-11-21T00:19:27;100976.44;;;6.62;91.97
81372;BME280;70827;52.206;5.294;2023-11-21T00:21:53;100982.47;;;6.72;91.57
81372;BME280;70827;52.206;5.294;2023-11-21T00:24:18;100974.81;;;6.87;91.45
81372;BME280;70827;52.206;5.294;2023-11-21T00:26:44;100976.53;;;6.86;91.33
81372;BME280;70827;52.206;5.294;2023-11-21T00:29:10;100964.50;;;6.82;90.58
81372;BME280;70827;52.206;5.294;2023-11-21T00:31:35;100977.38;;;6.85;90.92
81372;BME280;70827;52.206;5.294;2023-11-21T00:34:03;100974.78;;;6.73;91.04
81372;BME280;70827;52.206;5.294;2023-11-21T00:36:29;100975.59;;;6.68;91.76
81372;BME280;70827;52.206;5.294;2023-11-21T00:38:55;100984.19;;;6.67;92.13
81372;BME280;70827;52.206;5.294;2023-11-21T00:41:20;100975.66;;;6.80;92.12
81372;BME280;70827;52.206;5.294;2023-11-21T00:43:46;100985.94;;;6.74;92.42
81372;BME280;70827;52.206;5.294;2023-11-21T00:46:11;100978.22;;;6.84;91.77
81372;BME280;70827;52.206;5.294;2023-11-21T00:48:37;100982.50;;;6.79;91.39
81372;BME280;70827;52.206;5.294;2023-11-21T00:51:06;100983.38;;;6.83;91.35
81372;BME280;70827;52.206;5.294;2023-11-21T00:53:31;100992.81;;;6.76;92.06
81372;BME280;70827;52.206;5.294;2023-11-21T00:55:57;100988.59;;;6.90;91.94
81372;BME280;70827;52.206;5.294;2023-11-21T00:58:23;100998.78;;;6.68;92.43
81372;BME280;70827;52.206;5.294;2023-11-21T01:00:48;100999.69;;;6.83;92.31
81372;BME280;70827;52.206;5.294;2023-11-21T01:03:14;101001.41;;;6.75;92.18
81372;BME280;70827;52.206;5.294;2023-11-21T01:05:39;101003.16;;;6.87;91.82
81372;BME280;70827;52.206;5.294;2023-11-21T01:08:08;101005.72;;;6.84;91.92
81372;BME280;70827;52.206;5.294;2023-11-21T01:10:33;101016.03;;;6.84;92.10
81372;BME280;70827;52.206;5.294;2023-11-21T01:12:59;101005.75;;;6.94;92.20
81372;BME280;70827;52.206;5.294;2023-11-21T01:15:25;100996.28;;;6.84;91.94
81372;BME280;70827;52.206;5.294;2023-11-21T01:17:50;101014.38;;;6.98;91.78
81372;BME280;70827;52.206;5.294;2023-11-21T01:20:16;101009.22;;;7.04;92.33
81372;BME280;70827;52.206;5.294;2023-11-21T01:22:42;101009.25;;;7.18;92.09
81372;BME280;70827;52.206;5.294;2023-11-21T01:25:10;101005.91;;;7.49;91.20
81372;BME280;70827;52.206;5.294;2023-11-21T01:27:36;101010.16;;;7.34;90.83
81372;BME280;70827;52.206;5.294;2023-11-21T01:30:02;101005.00;;;7.37;91.09
81372;BME280;70827;52.206;5.294;2023-11-21T01:32:28;101009.31;;;7.36;90.67
81372;BME280;70827;52.206;5.294;2023-11-21T01:34:54;101016.19;;;7.28;91.02
81372;BME280;70827;52.206;5.294;2023-11-21T01:37:20;101014.47;;;7.27;91.60
81372;BME280;70827;52.206;5.294;2023-11-21T01:39:45;101023.91;;;7.39;91.38
81372;BME280;70827;52.206;5.294;2023-11-21T01:42:13;101033.38;;;7.29;91.28
81372;BME280;70827;52.206;5.294;2023-11-21T01:44:39;101021.31;;;7.20;91.78
81372;BME280;70827;52.206;5.294;2023-11-21T01:47:05;101040.25;;;7.27;91.81
81372;BME280;70827;52.206;5.294;2023-11-21T01:49:31;101034.19;;;7.20;92.06
81372;BME280;70827;52.206;5.294;2023-11-21T01:51:57;101030.78;;;7.37;91.50
81372;BME280;70827;52.206;5.294;2023-11-21T01:54:23;101034.22;;;7.39;91.79
81372;BME280;70827;52.206;5.294;2023-11-21T01:56:49;101031.63;;;7.22;91.58
81372;BME280;70827;52.206;5.294;2023-11-21T01:59:18;101045.34;;;7.16;91.87
81372;BME280;70827;52.206;5.294;2023-11-21T02:01:45;101054.81;;;7.16;92.05
81372;BME280;70827;52.206;5.294;2023-11-21T02:04:10;101044.53;;;7.33;91.62
81372;BME280;70827;52.206;5.294;2023-11-21T02:06:36;101053.13;;;7.32;91.36
81372;BME280;70827;52.206;5.294;2023-11-21T02:09:02;101056.53;;;7.18;91.62
81372;BME280;70827;52.206;5.294;2023-11-21T02:11:27;101063.44;;;7.22;92.18
81372;BME280;70827;52.206;5.294;2023-11-21T02:13:53;101059.16;;;7.32;91.92
81372;BME280;70827;52.206;5.294;2023-11-21T02:16:21;101065.16;;;7.23;92.31
81372;BME280;70827;52.206;5.294;2023-11-21T02:18:47;101068.59;;;7.27;91.95
81372;BME280;70827;52.206;5.294;2023-11-21T02:21:15;101066.03;;;7.35;92.40
81372;BME280;70827;52.206;5.294;2023-11-21T02:23:43;101064.31;;;7.32;92.05
81372;BME280;70827;52.206;5.294;2023-11-21T02:26:09;101076.34;;;7.26;92.86
81372;BME280;70827;52.206;5.294;2023-11-21T02:28:34;101066.91;;;7.35;92.29
81372;BME280;70827;52.206;5.294;2023-11-21T02:31:00;101075.53;;;7.52;91.73
81372;BME280;70827;52.206;5.294;2023-11-21T02:33:25;101072.97;;;7.46;91.45
81372;BME280;70827;52.206;5.294;2023-11-21T02:35:51;101077.28;;;7.66;90.92
81372;BME280;70827;52.206;5.294;2023-11-21T02:38:17;101078.94;;;7.38;91.42
81372;BME280;70827;52.206;5.294;2023-11-21T02:40:45;101087.50;;;7.24;92.18
81372;BME280;70827;52.206;5.294;2023-11-21T02:43:11;101088.41;;;7.39;92.20
81372;BME280;70827;52.206;5.294;2023-11-21T02:45:36;101072.84;;;7.19;92.64
81372;BME280;70827;52.206;5.294;2023-11-21T02:48:02;101082.38;;;7.35;92.05
81372;BME280;70827;52.206;5.294;2023-11-21T02:50:28;101084.09;;;7.30;92.26
81372;BME280;70827;52.206;5.294;2023-11-21T02:52:53;101088.38;;;7.33;92.39
81372;BME280;70827;52.206;5.294;2023-11-21T02:55:19;101088.38;;;7.34;92.80
81372;BME280;70827;52.206;5.294;2023-11-21T02:57:47;101084.13;;;7.42;92.85
81372;BME280;70827;52.206;5.294;2023-11-21T03:00:14;101084.09;;;7.33;92.74
81372;BME280;70827;52.206;5.294;2023-11-21T03:02:39;101072.97;;;7.45;92.17
81372;BME280;70827;52.206;5.294;2023-11-21T03:05:06;101089.25;;;7.30;92.66
81372;BME280;70827;52.206;5.294;2023-11-21T03:07:32;101079.78;;;7.24;93.03
81372;BME280;70827;52.206;5.294;2023-11-21T03:09:57;101067.75;;;7.34;92.67
81372;BME280;70827;52.206;5.294;2023-11-21T03:12:23;101071.19;;;7.24;92.36
81372;BME280;70827;52.206;5.294;2023-11-21T03:14:51;101062.53;;;7.17;92.55
81372;BME280;70827;52.206;5.294;2023-11-21T03:17:17;101061.75;;;7.32;92.65
81372;BME280;70827;52.206;5.294;2023-11-21T03:19:42;101079.78;;;7.24;92.49
81372;BME280;70827;52.206;5.294;2023-11-21T03:22:11;101085.75;;;7.16;93.02
81372;BME280;70827;52.206;5.294;2023-11-21T03:24:36;101089.19;;;7.15;92.91
81372;BME280;70827;52.206;5.294;2023-11-21T03:27:02;101081.44;;;7.10;92.71
81372;BME280;70827;52.206;5.294;2023-11-21T03:29:28;101086.66;;;7.22;92.83
81372;BME280;70827;52.206;5.294;2023-11-21T03:31:56;101087.47;;;7.20;92.83
81372;BME280;70827;52.206;5.294;2023-11-21T03:34:24;101093.53;;;7.33;92.33
81372;BME280;70827;52.206;5.294;2023-11-21T03:36:49;101092.63;;;7.18;93.02
81372;BME280;70827;52.206;5.294;2023-11-21T03:39:15;101096.94;;;7.21;93.00
81372;BME280;70827;52.206;5.294;2023-11-21T03:41:41;101103.84;;;7.28;92.89
81372;BME280;70827;52.206;5.294;2023-11-21T03:44:06;101100.34;;;7.18;93.31
81372;BME280;70827;52.206;5.294;2023-11-21T03:46:32;101105.56;;;7.26;93.04
81372;BME280;70827;52.206;5.294;2023-11-21T03:49:00;101103.00;;;7.35;93.27
81372;BME280;70827;52.206;5.294;2023-11-21T03:51:25;101106.38;;;7.14;93.38
81372;BME280;70827;52.206;5.294;2023-11-21T03:53:51;101112.38;;;7.18;93.62
81372;BME280;70827;52.206;5.294;2023-11-21T03:56:17;101109.84;;;7.22;93.76
81372;BME280;70827;52.206;5.294;2023-11-21T03:58:42;101114.19;;;7.33;93.86
81372;BME280;70827;52.206;5.294;2023-11-21T04:01:08;101112.47;;;7.35;93.52
81372;BME280;70827;52.206;5.294;2023-11-21T04:03:34;101116.81;;;7.45;93.23
81372;BME280;70827;52.206;5.294;2023-11-21T04:06:02;101117.59;;;7.29;92.92
81372;BME280;70827;52.206;5.294;2023-11-21T04:08:27;101134.81;;;7.37;93.04
81372;BME280;70827;52.206;5.294;2023-11-21T04:10:53;101135.72;;;7.39;93.02
81372;BME280;70827;52.206;5.294;2023-11-21T04:13:19;101135.72;;;7.42;93.19
81372;BME280;70827;52.206;5.294;2023-11-21T04:15:44;101138.28;;;7.42;93.24
81372;BME280;70827;52.206;5.294;2023-11-21T04:18:10;101140.81;;;7.36;93.42
81372;BME280;70827;52.206;5.294;2023-11-21T04:20:36;101142.59;;;7.40;93.43
81372;BME280;70827;52.206;5.294;2023-11-21T04:23:04;101142.66;;;7.72;93.40
81372;BME280;70827;52.206;5.294;2023-11-21T04:25:30;101136.63;;;7.60;92.87
81372;BME280;70827;52.206;5.294;2023-11-21T04:27:55;101157.28;;;7.64;92.88
81372;BME280;70827;52.206;5.294;2023-11-21T04:30:21;101159.88;;;7.67;93.28
81372;BME280;70827;52.206;5.294;2023-11-21T04:32:46;101153.84;;;7.67;92.59
81372;BME280;70827;52.206;5.294;2023-11-21T04:35:12;101169.28;;;7.54;93.50
81372;BME280;70827;52.206;5.294;2023-11-21T04:37:38;101165.88;;;7.63;93.48
81372;BME280;70827;52.206;5.294;2023-11-21T04:40:10;101172.75;;;7.69;93.47
81372;BME280;70827;52.206;5.294;2023-11-21T04:42:36;101170.22;;;7.82;92.88
81372;BME280;70827;52.206;5.294;2023-11-21T04:45:04;101171.03;;;7.62;93.36
81372;BME280;70827;52.206;5.294;2023-11-21T04:47:30;101165.88;;;7.60;93.46
81372;BME280;70827;52.206;5.294;2023-11-21T04:49:55;101162.44;;;7.60;93.55
81372;BME280;70827;52.206;5.294;2023-11-21T04:52:21;101167.59;;;7.70;93.54
81372;BME280;70827;52.206;5.294;2023-11-21T04:54:47;101162.44;;;7.61;93.83
81372;BME280;70827;52.206;5.294;2023-11-21T04:57:15;101178.78;;;7.68;93.55
81372;BME280;70827;52.206;5.294;2023-11-21T04:59:40;101177.91;;;7.66;93.64
81372;BME280;70827;52.206;5.294;2023-11-21T05:02:06;101177.94;;;7.67;93.92
81372;BME280;70827;52.206;5.294;2023-11-21T05:04:32;101184.00;;;7.78;93.89
81372;BME280;70827;52.206;5.294;2023-11-21T05:06:57;101184.81;;;7.68;94.06
81372;BME280;70827;52.206;5.294;2023-11-21T05:09:23;101196.03;;;7.79;93.78
81372;BME280;70827;52.206;5.294;2023-11-21T05:11:48;101188.25;;;7.72;94.01
81372;BME280;70827;52.206;5.294;2023-11-21T05:14:17;101196.91;;;7.83;93.82
81372;BME280;70827;52.206;5.294;2023-11-21T05:16:42;101194.31;;;7.77;94.42
81372;BME280;70827;52.206;5.294;2023-11-21T05:19:08;101192.59;;;7.87;94.29
81372;BME280;70827;52.206;5.294;2023-11-21T05:21:33;101197.75;;;7.74;94.47
81372;BME280;70827;52.206;5.294;2023-11-21T05:23:59;101206.34;;;7.79;94.72
81372;BME280;70827;52.206;5.294;2023-11-21T05:26:24;101203.84;;;7.99;94.44
81372;BME280;70827;52.206;5.294;2023-11-21T05:28:50;101212.38;;;7.88;94.49
81372;BME280;70827;52.206;5.294;2023-11-21T05:31:18;101205.56;;;7.97;94.59
81372;BME280;70827;52.206;5.294;2023-11-21T05:33:44;101215.03;;;8.03;95.00
81372;BME280;70827;52.206;5.294;2023-11-21T05:36:10;101212.44;;;7.97;94.94
81372;BME280;70827;52.206;5.294;2023-11-21T05:38:36;101216.75;;;7.99;95.05
81372;BME280;70827;52.206;5.294;2023-11-21T05:41:01;101228.78;;;8.05;94.93
81372;BME280;70827;52.206;5.294;2023-11-21T05:43:27;101218.47;;;7.96;94.75
81372;BME280;70827;52.206;5.294;2023-11-21T05:45:54;101229.66;;;8.02;94.99
81372;BME280;70827;52.206;5.294;2023-11-21T05:48:22;101221.91;;;7.93;94.91
81372;BME280;70827;52.206;5.294;2023-11-21T05:50:47;101228.81;;;8.06;94.71
81372;BME280;70827;52.206;5.294;2023-11-21T05:53:13;101237.41;;;8.01;94.89
81372;BME280;70827;52.206;5.294;2023-11-21T05:55:39;101239.13;;;8.05;95.12
81372;BME280;70827;52.206;5.294;2023-11-21T05:58:04;101234.81;;;8.05;94.73
81372;BME280;70827;52.206;5.294;2023-11-21T06:00:30;101241.69;;;8.05;95.11
81372;BME280;70827;52.206;5.294;2023-11-21T06:02:58;101249.44;;;8.05;95.23
81372;BME280;70827;52.206;5.294;2023-11-21T06:05:27;101248.59;;;8.01;95.45
81372;BME280;70827;52.206;5.294;2023-11-21T06:07:54;101252.06;;;8.08;95.08
81372;BME280;70827;52.206;5.294;2023-11-21T06:10:20;101251.22;;;8.13;95.18
81372;BME280;70827;52.206;5.294;2023-11-21T06:12:46;101255.47;;;8.04;94.83
81372;BME280;70827;52.206;5.294;2023-11-21T06:15:12;101259.75;;;7.99;95.23
81372;BME280;70827;52.206;5.294;2023-11-21T06:17:38;101262.38;;;8.06;95.36
81372;BME280;70827;52.206;5.294;2023-11-21T06:20:06;101269.28;;;8.09;95.11
81372;BME280;70827;52.206;5.294;2023-11-21T06:22:34;101268.44;;;8.18;94.95
81372;BME280;70827;52.206;5.294;2023-11-21T06:25:00;101267.56;;;8.11;94.88
81372;BME280;70827;52.206;5.294;2023-11-21T06:27:25;101271.88;;;8.20;95.21
81372;BME280;70827;52.206;5.294;2023-11-21T06:29:51;101274.47;;;8.21;95.34
81372;BME280;70827;52.206;5.294;2023-11-21T06:32:17;101286.53;;;8.27;95.07
81372;BME280;70827;52.206;5.294;2023-11-21T06:34:42;101279.66;;;8.32;94.81
81372;BME280;70827;52.206;5.294;2023-11-21T06:37:08;101289.19;;;8.43;94.88
81372;BME280;70827;52.206;5.294;2023-11-21T06:39:36;101287.47;;;8.41;95.28
81372;BME280;70827;52.206;5.294;2023-11-21T06:42:02;101287.47;;;8.52;94.96
81372;BME280;70827;52.206;5.294;2023-11-21T06:44:27;101281.44;;;8.50;95.21
81372;BME280;70827;52.206;5.294;2023-11-21T06:46:53;101284.03;;;8.53;95.22
81372;BME280;70827;52.206;5.294;2023-11-21T06:49:18;101291.78;;;8.54;95.33
81372;BME280;70827;52.206;5.294;2023-11-21T06:51:44;101291.81;;;8.65;95.35
81372;BME280;70827;52.206;5.294;2023-11-21T06:54:10;101296.16;;;8.75;95.13
81372;BME280;70827;52.206;5.294;2023-11-21T06:56:38;101295.25;;;8.61;95.17
81372;BME280;70827;52.206;5.294;2023-11-21T06:59:03;101301.31;;;8.73;95.10
81372;BME280;70827;52.206;5.294;2023-11-21T07:01:29;101306.47;;;8.77;95.27
81372;BME280;70827;52.206;5.294;2023-11-21T07:03:55;101319.41;;;8.84;94.91
81372;BME280;70827;52.206;5.294;2023-11-21T07:06:20;101325.44;;;8.80;95.46
81372;BME280;70827;52.206;5.294;2023-11-21T07:08:48;101315.97;;;8.79;95.55
81372;BME280;70827;52.206;5.294;2023-11-21T07:11:14;101323.69;;;8.90;95.42
81372;BME280;70827;52.206;5.294;2023-11-21T07:13:42;101323.72;;;9.02;95.30
81372;BME280;70827;52.206;5.294;2023-11-21T07:16:08;101322.00;;;8.92;95.04
81372;BME280;70827;52.206;5.294;2023-11-21T07:18:33;101334.06;;;9.02;95.38
81372;BME280;70827;52.206;5.294;2023-11-21T07:20:59;101335.78;;;9.20;94.93
81372;BME280;70827;52.206;5.294;2023-11-21T07:23:25;101339.22;;;9.23;94.94
81372;BME280;70827;52.206;5.294;2023-11-21T07:25:50;101339.22;;;9.45;94.20
81372;BME280;70827;52.206;5.294;2023-11-21T07:28:16;101345.28;;;9.33;94.55
81372;BME280;70827;52.206;5.294;2023-11-21T07:30:44;101346.16;;;9.29;94.46
81372;BME280;70827;52.206;5.294;2023-11-21T07:33:10;101350.44;;;9.38;94.02
81372;BME280;70827;52.206;5.294;2023-11-21T07:35:35;101349.59;;;9.32;94.68
81372;BME280;70827;52.206;5.294;2023-11-21T07:38:01;101353.91;;;9.44;94.37
81372;BME280;70827;52.206;5.294;2023-11-21T07:40:27;101358.19;;;9.54;94.41
81372;BME280;70827;52.206;5.294;2023-11-21T07:42:52;101359.91;;;9.54;94.24
81372;BME280;70827;52.206;5.294;2023-11-21T07:45:18;101363.38;;;9.45;94.39
81372;BME280;70827;52.206;5.294;2023-11-21T07:47:46;101372.00;;;9.44;94.37
81372;BME280;70827;52.206;5.294;2023-11-21T07:50:12;101377.19;;;9.33;94.91
81372;BME280;70827;52.206;5.294;2023-11-21T07:52:37;101378.03;;;9.46;94.62
81372;BME280;70827;52.206;5.294;2023-11-21T07:55:04;101382.34;;;9.40;94.56
81372;BME280;70827;52.206;5.294;2023-11-21T07:57:29;101385.81;;;9.46;94.84
81372;BME280;70827;52.206;5.294;2023-11-21T07:59:55;101393.56;;;9.31;95.20
81372;BME280;70827;52.206;5.294;2023-11-21T08:02:21;101396.13;;;9.55;95.45
81372;BME280;70827;52.206;5.294;2023-11-21T08:04:49;101403.91;;;9.58;94.60
81372;BME280;70827;52.206;5.294;2023-11-21T08:07:15;101414.28;;;9.60;94.68
81372;BME280;70827;52.206;5.294;2023-11-21T08:09:40;101413.41;;;9.32;95.08
81372;BME280;70827;52.206;5.294;2023-11-21T08:12:07;101418.56;;;9.40;95.12
81372;BME280;70827;52.206;5.294;2023-11-21T08:14:32;101421.19;;;9.58;95.41
81372;BME280;70827;52.206;5.294;2023-11-21T08:16:58;101439.28;;;9.41;95.32
81372;BME280;70827;52.206;5.294;2023-11-21T08:19:24;101438.44;;;9.60;95.14
81372;BME280;70827;52.206;5.294;2023-11-21T08:21:52;101434.97;;;9.60;95.18
81372;BME280;70827;52.206;5.294;2023-11-21T08:24:17;101448.78;;;9.48;95.08
81372;BME280;70827;52.206;5.294;2023-11-21T08:26:43;101462.59;;;9.41;95.23
81372;BME280;70827;52.206;5.294;2023-11-21T08:29:09;101464.31;;;9.67;95.41
81372;BME280;70827;52.206;5.294;2023-11-21T08:31:34;101468.59;;;9.71;95.24
81372;BME280;70827;52.206;5.294;2023-11-21T08:34:00;101478.97;;;9.54;95.16
81372;BME280;70827;52.206;5.294;2023-11-21T08:36:26;101462.56;;;9.70;95.15
81372;BME280;70827;52.206;5.294;2023-11-21T08:38:54;101470.34;;;9.76;95.14
81372;BME280;70827;52.206;5.294;2023-11-21T08:41:20;101473.78;;;9.83;94.98
81372;BME280;70827;52.206;5.294;2023-11-21T08:43:45;101485.00;;;9.65;94.92
81372;BME280;70827;52.206;5.294;2023-11-21T08:46:11;101485.88;;;9.91;95.12
81372;BME280;70827;52.206;5.294;2023-11-21T08:48:37;101485.88;;;9.87;94.65
81372;BME280;70827;52.206;5.294;2023-11-21T08:51:03;101497.97;;;9.77;95.06
81372;BME280;70827;52.206;5.294;2023-11-21T08:53:28;101487.63;;;9.77;95.03
81372;BME280;70827;52.206;5.294;2023-11-21T08:55:57;101501.41;;;9.79;95.04
81372;BME280;70827;52.206;5.294;2023-11-21T08:58:22;101517.81;;;9.83;94.99
81372;BME280;70827;52.206;5.294;2023-11-21T09:00:48;101524.69;;;9.90;94.85
81372;BME280;70827;52.206;5.294;2023-11-21T09:03:13;101522.13;;;9.88;94.63
81372;BME280;70827;52.206;5.294;2023-11-21T09:05:39;101523.84;;;9.86;94.75
81372;BME280;70827;52.206;5.294;2023-11-21T09:08:05;101530.75;;;9.84;94.65
81372;BME280;70827;52.206;5.294;2023-11-21T09:10:30;101529.91;;;9.78;94.62
81372;BME280;70827;52.206;5.294;2023-11-21T09:12:59;101542.84;;;9.82;94.95
81372;BME280;70827;52.206;5.294;2023-11-21T09:15:24;101529.91;;;9.76;94.70
81372;BME280;70827;52.206;5.294;2023-11-21T09:17:50;101542.81;;;9.67;94.80
81372;BME280;70827;52.206;5.294;2023-11-21T09:20:15;101544.56;;;9.62;94.54
81372;BME280;70827;52.206;5.294;2023-11-21T09:22:41;101550.59;;;9.61;95.06
81372;BME280;70827;52.206;5.294;2023-11-21T09:25:08;101556.66;;;9.89;94.95
81372;BME280;70827;52.206;5.294;2023-11-21T09:27:34;101560.13;;;9.74;94.12
81372;BME280;70827;52.206;5.294;2023-11-21T09:30:02;101550.59;;;9.61;93.93
81372;BME280;70827;52.206;5.294;2023-11-21T09:32:28;101554.00;;;9.55;94.58
81372;BME280;70827;52.206;5.294;2023-11-21T09:34:54;101560.97;;;9.81;94.34
81372;BME280;70827;52.206;5.294;2023-11-21T09:37:19;101578.22;;;9.59;94.09
81372;BME280;70827;52.206;5.294;2023-11-21T09:39:45;101582.53;;;9.63;94.33
81372;BME280;70827;52.206;5.294;2023-11-21T09:42:13;101581.63;;;9.44;94.50
81372;BME280;70827;52.206;5.294;2023-11-21T09:44:45;101591.97;;;9.52;94.55
81372;BME280;70827;52.206;5.294;2023-11-21T09:47:14;101599.75;;;9.50;94.46
81372;BME280;70827;52.206;5.294;2023-11-21T09:49:40;101594.56;;;9.55;93.86
81372;BME280;70827;52.206;5.294;2023-11-21T09:52:06;101598.88;;;9.53;93.51
81372;BME280;70827;52.206;5.294;2023-11-21T09:54:34;101610.09;;;9.47;93.23
81372;BME280;70827;52.206;5.294;2023-11-21T09:57:00;101605.81;;;9.64;93.54
81372;BME280;70827;52.206;5.294;2023-11-21T09:59:28;101613.59;;;9.74;92.60
81372;BME280;70827;52.206;5.294;2023-11-21T10:01:55;101607.50;;;9.52;92.67
81372;BME280;70827;52.206;5.294;2023-11-21T10:04:25;101617.91;;;9.58;92.94
81372;BME280;70827;52.206;5.294;2023-11-21T10:06:51;101609.22;;;9.56;92.70
81372;BME280;70827;52.206;5.294;2023-11-21T10:09:17;101611.81;;;9.56;92.49
81372;BME280;70827;52.206;5.294;2023-11-21T10:11:43;101613.53;;;9.46;92.63
81372;BME280;70827;52.206;5.294;2023-11-21T10:14:10;101630.84;;;9.69;92.10
81372;BME280;70827;52.206;5.294;2023-11-21T10:16:36;101624.75;;;9.54;92.40
81372;BME280;70827;52.206;5.294;2023-11-21T10:19:03;101645.47;;;9.54;92.47
81372;BME280;70827;52.206;5.294;2023-11-21T10:21:32;101646.38;;;9.73;91.88
81372;BME280;70827;52.206;5.294;2023-11-21T10:23:57;101648.97;;;9.73;92.29
81372;BME280;70827;52.206;5.294;2023-11-21T10:26:23;101649.84;;;9.71;91.70
81372;BME280;70827;52.206;5.294;2023-11-21T10:28:55;101653.22;;;9.54;92.58
81372;BME280;70827;52.206;5.294;2023-11-21T10:31:21;101670.53;;;9.61;92.63
81372;BME280;70827;52.206;5.294;2023-11-21T10:33:47;101667.91;;;9.51;92.86
81372;BME280;70827;52.206;5.294;2023-11-21T10:36:12;101671.34;;;9.54;93.23
81372;BME280;70827;52.206;5.294;2023-11-21T10:38:44;101678.25;;;9.46;93.53
81372;BME280;70827;52.206;5.294;2023-11-21T10:41:11;101686.13;;;9.81;93.21
81372;BME280;70827;52.206;5.294;2023-11-21T10:43:36;101681.75;;;9.63;92.54
81372;BME280;70827;52.206;5.294;2023-11-21T10:46:04;101688.59;;;9.55;92.60
81372;BME280;70827;52.206;5.294;2023-11-21T10:48:30;101681.75;;;9.59;92.77
81372;BME280;70827;52.206;5.294;2023-11-21T10:50:57;101694.69;;;9.59;92.61
81372;BME280;70827;52.206;5.294;2023-11-21T10:53:22;101702.41;;;9.54;92.32
81372;BME280;70827;52.206;5.294;2023-11-21T10:55:51;101699.03;;;9.68;92.44
81372;BME280;70827;52.206;5.294;2023-11-21T10:58:26;101696.44;;;9.69;92.01
81372;BME280;70827;52.206;5.294;2023-11-21T11:00:51;101707.66;;;9.71;91.62
81372;BME280;70827;52.206;5.294;2023-11-21T11:03:17;101707.69;;;9.77;91.98
81372;BME280;70827;52.206;5.294;2023-11-21T11:05:43;101704.25;;;9.80;91.78
81372;BME280;70827;52.206;5.294;2023-11-21T11:08:10;101717.22;;;9.89;91.89
81372;BME280;70827;52.206;5.294;2023-11-21T11:10:37;101711.97;;;9.64;92.50
81372;BME280;70827;52.206;5.294;2023-11-21T11:13:06;101711.16;;;9.85;91.78
81372;BME280;70827;52.206;5.294;2023-11-21T11:15:32;101715.47;;;9.79;91.09
81372;BME280;70827;52.206;5.294;2023-11-21T11:17:58;101716.34;;;9.87;91.28
81372;BME280;70827;52.206;5.294;2023-11-21T11:20:24;101718.88;;;9.69;91.55
81372;BME280;70827;52.206;5.294;2023-11-21T11:22:59;101726.63;;;9.59;92.03
81372;BME280;70827;52.206;5.294;2023-11-21T11:25:40;101720.56;;;9.59;92.19
81372;BME280;70827;52.206;5.294;2023-11-21T11:28:15;101714.56;;;9.71;91.20
81372;BME280;70827;52.206;5.294;2023-11-21T11:30:50;101724.03;;;9.61;91.37
81372;BME280;70827;52.206;5.294;2023-11-21T11:33:24;101729.31;;;9.91;91.25
81372;BME280;70827;52.206;5.294;2023-11-21T11:35:57;101730.06;;;9.60;91.45
81372;BME280;70827;52.206;5.294;2023-11-21T11:38:32;101730.13;;;9.75;91.93
81372;BME280;70827;52.206;5.294;2023-11-21T11:40:57;101739.66;;;9.85;90.94
81372;BME280;70827;52.206;5.294;2023-11-21T11:43:29;101740.50;;;9.80;91.56
81372;BME280;70827;52.206;5.294;2023-11-21T11:45:56;101745.69;;;9.84;91.59
81372;BME280;70827;52.206;5.294;2023-11-21T11:48:22;101737.84;;;9.63;91.72
81372;BME280;70827;52.206;5.294;2023-11-21T11:51:04;101748.22;;;9.71;91.61
81372;BME280;70827;52.206;5.294;2023-11-21T11:53:33;101746.47;;;9.62;91.23
81372;BME280;70827;52.206;5.294;2023-11-21T11:56:28;101754.25;;;9.68;91.44
81372;BME280;70827;52.206;5.294;2023-11-21T11:58:57;101753.31;;;9.51;91.50
81372;BME280;70827;52.206;5.294;2023-11-21T12:01:24;101769.84;;;9.76;91.14
81372;BME280;70827;52.206;5.294;2023-11-21T12:04:23;101773.22;;;9.58;91.53
81372;BME280;70827;52.206;5.294;2023-11-21T12:06:51;101782.72;;;9.62;91.70
81372;BME280;70827;52.206;5.294;2023-11-21T12:09:17;101783.50;;;9.53;90.94
81372;BME280;70827;52.206;5.294;2023-11-21T12:11:44;101771.41;;;9.46;91.59
81372;BME280;70827;52.206;5.294;2023-11-21T12:14:12;101765.38;;;9.52;90.35
81372;BME280;70827;52.206;5.294;2023-11-21T12:16:38;101765.44;;;9.62;90.35
81372;BME280;70827;52.206;5.294;2023-11-21T12:19:04;101782.84;;;9.95;89.36
81372;BME280;70827;52.206;5.294;2023-11-21T12:21:30;101775.94;;;9.93;89.43
81372;BME280;70827;52.206;5.294;2023-11-21T12:23:56;101766.41;;;9.87;88.72
81372;BME280;70827;52.206;5.294;2023-11-21T12:26:23;101767.38;;;10.15;88.51
81372;BME280;70827;52.206;5.294;2023-11-21T12:28:52;101761.28;;;9.93;88.89
81372;BME280;70827;52.206;5.294;2023-11-21T12:31:20;101779.41;;;9.93;88.80
81372;BME280;70827;52.206;5.294;2023-11-21T12:33:45;101778.59;;;10.14;88.57
81372;BME280;70827;52.206;5.294;2023-11-21T12:36:11;101783.78;;;10.11;88.28
81372;BME280;70827;52.206;5.294;2023-11-21T12:38:37;101794.16;;;10.19;88.06
81372;BME280;70827;52.206;5.294;2023-11-21T12:41:02;101781.16;;;10.07;88.19
81372;BME280;70827;52.206;5.294;2023-11-21T12:43:28;101787.97;;;9.74;89.01
81372;BME280;70827;52.206;5.294;2023-11-21T12:46:04;101794.88;;;9.81;89.56
81372;BME280;70827;52.206;5.294;2023-11-21T12:48:36;101802.66;;;9.87;89.46
81372;BME280;70827;52.206;5.294;2023-11-21T12:51:02;101798.47;;;10.14;89.62
81372;BME280;70827;52.206;5.294;2023-11-21T12:53:28;101805.31;;;10.03;89.25
81372;BME280;70827;52.206;5.294;2023-11-21T12:55:55;101816.53;;;9.91;90.00